Plainview, Minnesota
Current Conditions -  °F | °C
As of 10:14 PM on Thursday 27 Nov 2014 (Local Time) from K9MN Reporting Station
Overcast Overcast  
Wind Chill: -3°   Ceiling: 8000
Heat Index:   Visibility: 10mi
Dew Point: -2°   Wind: 7mph
Humidity: 63%   Direction: 170°S
Pressure: 30.3"   Gusts: NA
Location:  44.16°N, 92.17°W
Report Text: K9MN 280414Z AUTO 17006KT 10SM OVC080 M13/M19 A3030 RMK AO1 T11321189
Loading
Personal Weather Stations






























Interactive Weather Map New forecast layout! Learn more

10-Day Weather Forecast

Advertisements
Track Severe Weather on mobile